sensor_id;sensor_type;location;lat;lon;timestamp;temperature;humidity
4215;DHT22;2121;48.062;7.850;2023-05-07T00:00:17;11.80;99.90
4215;DHT22;2121;48.062;7.850;2023-05-07T00:02:44;11.80;99.90
4215;DHT22;2121;48.062;7.850;2023-05-07T00:05:11;11.80;99.90
4215;DHT22;2121;48.062;7.850;2023-05-07T00:07:37;11.90;99.90
4215;DHT22;2121;48.062;7.850;2023-05-07T00:10:03;11.90;99.90
4215;DHT22;2121;48.062;7.850;2023-05-07T00:12:31;11.90;99.90
4215;DHT22;2121;48.062;7.850;2023-05-07T00:15:00;11.80;99.90
4215;DHT22;2121;48.062;7.850;2023-05-07T00:17:27;11.80;99.90
4215;DHT22;2121;48.062;7.850;2023-05-07T00:19:53;11.80;99.90
4215;DHT22;2121;48.062;7.850;2023-05-07T00:22:18;11.80;99.90
4215;DHT22;2121;48.062;7.850;2023-05-07T00:24:44;11.90;99.90
4215;DHT22;2121;48.062;7.850;2023-05-07T00:27:10;12.00;99.90
4215;DHT22;2121;48.062;7.850;2023-05-07T00:29:35;12.00;99.90
4215;DHT22;2121;48.062;7.850;2023-05-07T00:32:02;11.90;99.90
4215;DHT22;2121;48.062;7.850;2023-05-07T00:34:27;11.80;99.90
4215;DHT22;2121;48.062;7.850;2023-05-07T00:36:53;11.80;99.90
4215;DHT22;2121;48.062;7.850;2023-05-07T00:39:19;11.80;99.90
4215;DHT22;2121;48.062;7.850;2023-05-07T00:41:44;11.90;99.90
4215;DHT22;2121;48.062;7.850;2023-05-07T00:44:11;11.90;99.90
4215;DHT22;2121;48.062;7.850;2023-05-07T00:46:37;12.00;99.90
4215;DHT22;2121;48.062;7.850;2023-05-07T00:49:03;12.00;99.90
4215;DHT22;2121;48.062;7.850;2023-05-07T00:51:29;12.00;99.90
4215;DHT22;2121;48.062;7.850;2023-05-07T00:53:55;12.00;99.90
4215;DHT22;2121;48.062;7.850;2023-05-07T00:56:22;11.90;99.90
4215;DHT22;2121;48.062;7.850;2023-05-07T00:58:49;11.80;99.90
4215;DHT22;2121;48.062;7.850;2023-05-07T01:01:14;11.70;99.90
4215;DHT22;2121;48.062;7.850;2023-05-07T01:03:43;11.70;99.90
4215;DHT22;2121;48.062;7.850;2023-05-07T01:06:10;11.70;99.90
4215;DHT22;2121;48.062;7.850;2023-05-07T01:08:41;11.60;99.90
4215;DHT22;2121;48.062;7.850;2023-05-07T01:11:08;11.60;99.90
4215;DHT22;2121;48.062;7.850;2023-05-07T01:13:35;11.60;99.90
4215;DHT22;2121;48.062;7.850;2023-05-07T01:16:02;11.80;99.90
4215;DHT22;2121;48.062;7.850;2023-05-07T01:18:28;11.80;99.90
4215;DHT22;2121;48.062;7.850;2023-05-07T01:20:58;11.70;99.90
4215;DHT22;2121;48.062;7.850;2023-05-07T01:23:25;11.70;99.90
4215;DHT22;2121;48.062;7.850;2023-05-07T01:25:53;11.60;99.90
4215;DHT22;2121;48.062;7.850;2023-05-07T01:28:20;11.50;99.90
4215;DHT22;2121;48.062;7.850;2023-05-07T01:30:48;11.40;99.90
4215;DHT22;2121;48.062;7.850;2023-05-07T01:33:20;11.40;99.90
4215;DHT22;2121;48.062;7.850;2023-05-07T01:35:52;11.40;99.90
4215;DHT22;2121;48.062;7.850;2023-05-07T01:38:19;11.40;99.90
4215;DHT22;2121;48.062;7.850;2023-05-07T01:40:47;11.50;99.90
4215;DHT22;2121;48.062;7.850;2023-05-07T01:43:13;11.40;99.90
4215;DHT22;2121;48.062;7.850;2023-05-07T01:45:40;11.40;99.90
4215;DHT22;2121;48.062;7.850;2023-05-07T01:48:07;11.30;99.90
4215;DHT22;2121;48.062;7.850;2023-05-07T01:50:35;11.20;99.90
4215;DHT22;2121;48.062;7.850;2023-05-07T01:53:01;11.10;99.90
4215;DHT22;2121;48.062;7.850;2023-05-07T01:55:27;11.10;99.90
4215;DHT22;2121;48.062;7.850;2023-05-07T01:57:56;11.20;99.90
4215;DHT22;2121;48.062;7.850;2023-05-07T02:00:22;11.30;99.90
4215;DHT22;2121;48.062;7.850;2023-05-07T02:02:48;11.30;99.90
4215;DHT22;2121;48.062;7.850;2023-05-07T02:05:14;11.30;99.90
4215;DHT22;2121;48.062;7.850;2023-05-07T02:07:39;11.20;99.90
4215;DHT22;2121;48.062;7.850;2023-05-07T02:10:05;11.00;99.90
4215;DHT22;2121;48.062;7.850;2023-05-07T02:12:31;10.90;99.90
4215;DHT22;2121;48.062;7.850;2023-05-07T02:14:57;10.80;99.90
4215;DHT22;2121;48.062;7.850;2023-05-07T02:17:23;10.70;99.90
4215;DHT22;2121;48.062;7.850;2023-05-07T02:19:49;10.70;99.90
4215;DHT22;2121;48.062;7.850;2023-05-07T02:22:14;10.70;99.90
4215;DHT22;2121;48.062;7.850;2023-05-07T02:24:40;10.70;99.90
4215;DHT22;2121;48.062;7.850;2023-05-07T02:27:06;10.70;99.90
4215;DHT22;2121;48.062;7.850;2023-05-07T02:29:32;10.70;99.90
4215;DHT22;2121;48.062;7.850;2023-05-07T02:31:58;10.80;99.90
4215;DHT22;2121;48.062;7.850;2023-05-07T02:34:23;10.80;99.90
4215;DHT22;2121;48.062;7.850;2023-05-07T02:36:49;10.80;99.90
4215;DHT22;2121;48.062;7.850;2023-05-07T02:39:16;10.70;99.90
4215;DHT22;2121;48.062;7.850;2023-05-07T02:41:42;10.50;99.90
4215;DHT22;2121;48.062;7.850;2023-05-07T02:44:07;10.40;99.90
4215;DHT22;2121;48.062;7.850;2023-05-07T02:46:34;10.40;99.90
4215;DHT22;2121;48.062;7.850;2023-05-07T02:49:00;10.40;99.90
4215;DHT22;2121;48.062;7.850;2023-05-07T02:51:26;10.40;99.90
4215;DHT22;2121;48.062;7.850;2023-05-07T02:53:53;10.40;99.90
4215;DHT22;2121;48.062;7.850;2023-05-07T02:56:19;10.40;99.90
4215;DHT22;2121;48.062;7.850;2023-05-07T02:58:45;10.60;99.90
4215;DHT22;2121;48.062;7.850;2023-05-07T03:01:10;10.60;99.90
4215;DHT22;2121;48.062;7.850;2023-05-07T03:03:37;10.60;99.90
4215;DHT22;2121;48.062;7.850;2023-05-07T03:06:03;10.60;99.90
4215;DHT22;2121;48.062;7.850;2023-05-07T03:08:29;10.60;99.90
4215;DHT22;2121;48.062;7.850;2023-05-07T03:10:54;10.50;99.90
4215;DHT22;2121;48.062;7.850;2023-05-07T03:13:20;10.40;99.90
4215;DHT22;2121;48.062;7.850;2023-05-07T03:15:46;10.40;99.90
4215;DHT22;2121;48.062;7.850;2023-05-07T03:18:12;10.40;99.90
4215;DHT22;2121;48.062;7.850;2023-05-07T03:20:37;10.40;99.90
4215;DHT22;2121;48.062;7.850;2023-05-07T03:23:03;10.30;99.90
4215;DHT22;2121;48.062;7.850;2023-05-07T03:25:29;10.20;99.90
4215;DHT22;2121;48.062;7.850;2023-05-07T03:27:58;10.20;99.90
4215;DHT22;2121;48.062;7.850;2023-05-07T03:30:24;10.20;99.90
4215;DHT22;2121;48.062;7.850;2023-05-07T03:32:49;10.20;99.90
4215;DHT22;2121;48.062;7.850;2023-05-07T03:35:15;10.20;99.90
4215;DHT22;2121;48.062;7.850;2023-05-07T03:37:41;10.20;99.90
4215;DHT22;2121;48.062;7.850;2023-05-07T03:40:08;10.10;99.90
4215;DHT22;2121;48.062;7.850;2023-05-07T03:42:35;10.10;99.90
4215;DHT22;2121;48.062;7.850;2023-05-07T03:45:01;10.20;99.90
4215;DHT22;2121;48.062;7.850;2023-05-07T03:47:27;10.10;99.90
4215;DHT22;2121;48.062;7.850;2023-05-07T03:49:53;10.20;99.90
4215;DHT22;2121;48.062;7.850;2023-05-07T03:52:20;10.10;99.90
4215;DHT22;2121;48.062;7.850;2023-05-07T03:54:49;10.10;99.90
4215;DHT22;2121;48.062;7.850;2023-05-07T03:57:15;10.00;99.90
4215;DHT22;2121;48.062;7.850;2023-05-07T03:59:41;9.90;99.90
4215;DHT22;2121;48.062;7.850;2023-05-07T04:02:07;9.90;99.90
4215;DHT22;2121;48.062;7.850;2023-05-07T04:04:32;10.00;99.90
4215;DHT22;2121;48.062;7.850;2023-05-07T04:06:58;10.00;99.90
4215;DHT22;2121;48.062;7.850;2023-05-07T04:09:25;10.00;99.90
4215;DHT22;2121;48.062;7.850;2023-05-07T04:11:51;9.90;99.90
4215;DHT22;2121;48.062;7.850;2023-05-07T04:14:17;9.80;99.90
4215;DHT22;2121;48.062;7.850;2023-05-07T04:16:42;9.80;99.90
4215;DHT22;2121;48.062;7.850;2023-05-07T04:19:08;9.90;99.90
4215;DHT22;2121;48.062;7.850;2023-05-07T04:21:34;9.90;99.90
4215;DHT22;2121;48.062;7.850;2023-05-07T04:24:00;9.90;99.90
4215;DHT22;2121;48.062;7.850;2023-05-07T04:26:25;9.90;99.90
4215;DHT22;2121;48.062;7.850;2023-05-07T04:28:51;10.00;99.90
4215;DHT22;2121;48.062;7.850;2023-05-07T04:31:17;10.00;99.90
4215;DHT22;2121;48.062;7.850;2023-05-07T04:33:43;10.10;99.90
4215;DHT22;2121;48.062;7.850;2023-05-07T04:36:08;10.20;99.90
4215;DHT22;2121;48.062;7.850;2023-05-07T04:38:34;10.40;99.90
4215;DHT22;2121;48.062;7.850;2023-05-07T04:41:04;10.50;99.90
4215;DHT22;2121;48.062;7.850;2023-05-07T04:43:31;10.60;99.90
4215;DHT22;2121;48.062;7.850;2023-05-07T04:45:57;10.70;99.90
4215;DHT22;2121;48.062;7.850;2023-05-07T04:48:22;10.80;99.90
4215;DHT22;2121;48.062;7.850;2023-05-07T04:50:51;10.90;99.90
4215;DHT22;2121;48.062;7.850;2023-05-07T04:53:17;10.90;99.90
4215;DHT22;2121;48.062;7.850;2023-05-07T04:55:44;11.00;99.90
4215;DHT22;2121;48.062;7.850;2023-05-07T04:58:13;11.10;99.90
4215;DHT22;2121;48.062;7.850;2023-05-07T05:00:39;11.30;99.90
4215;DHT22;2121;48.062;7.850;2023-05-07T05:03:06;11.40;99.90
4215;DHT22;2121;48.062;7.850;2023-05-07T05:05:32;11.60;99.90
4215;DHT22;2121;48.062;7.850;2023-05-07T05:07:58;11.80;99.90
4215;DHT22;2121;48.062;7.850;2023-05-07T05:10:24;12.00;99.90
4215;DHT22;2121;48.062;7.850;2023-05-07T05:12:50;12.20;99.90
4215;DHT22;2121;48.062;7.850;2023-05-07T05:15:16;12.30;99.90
4215;DHT22;2121;48.062;7.850;2023-05-07T05:17:42;12.50;99.90
4215;DHT22;2121;48.062;7.850;2023-05-07T05:20:07;12.70;99.90
4215;DHT22;2121;48.062;7.850;2023-05-07T05:22:36;12.70;99.90
4215;DHT22;2121;48.062;7.850;2023-05-07T05:25:01;12.90;99.90
4215;DHT22;2121;48.062;7.850;2023-05-07T05:27:28;13.00;99.90
4215;DHT22;2121;48.062;7.850;2023-05-07T05:29:54;13.10;99.90
4215;DHT22;2121;48.062;7.850;2023-05-07T05:32:19;13.30;99.90
4215;DHT22;2121;48.062;7.850;2023-05-07T05:34:45;13.50;99.90
4215;DHT22;2121;48.062;7.850;2023-05-07T05:37:11;13.80;99.90
4215;DHT22;2121;48.062;7.850;2023-05-07T05:39:37;13.90;99.90
4215;DHT22;2121;48.062;7.850;2023-05-07T05:42:02;14.00;99.90
4215;DHT22;2121;48.062;7.850;2023-05-07T05:44:28;14.00;99.90
4215;DHT22;2121;48.062;7.850;2023-05-07T05:46:54;13.90;99.90
4215;DHT22;2121;48.062;7.850;2023-05-07T05:49:21;13.90;99.90
4215;DHT22;2121;48.062;7.850;2023-05-07T05:51:47;14.00;99.90
4215;DHT22;2121;48.062;7.850;2023-05-07T05:54:13;14.10;99.90
4215;DHT22;2121;48.062;7.850;2023-05-07T05:56:38;14.10;99.90
4215;DHT22;2121;48.062;7.850;2023-05-07T05:59:04;14.20;99.90
4215;DHT22;2121;48.062;7.850;2023-05-07T06:01:30;14.30;99.90
4215;DHT22;2121;48.062;7.850;2023-05-07T06:03:56;14.40;99.90
4215;DHT22;2121;48.062;7.850;2023-05-07T06:06:22;14.80;99.90
4215;DHT22;2121;48.062;7.850;2023-05-07T06:08:47;15.10;99.90
4215;DHT22;2121;48.062;7.850;2023-05-07T06:11:13;15.50;99.90
4215;DHT22;2121;48.062;7.850;2023-05-07T06:13:39;16.20;99.90
4215;DHT22;2121;48.062;7.850;2023-05-07T06:16:05;16.70;99.90
4215;DHT22;2121;48.062;7.850;2023-05-07T06:18:31;17.00;99.90
4215;DHT22;2121;48.062;7.850;2023-05-07T06:20:57;17.10;99.90
4215;DHT22;2121;48.062;7.850;2023-05-07T06:23:22;17.10;99.90
4215;DHT22;2121;48.062;7.850;2023-05-07T06:25:49;17.30;99.90
4215;DHT22;2121;48.062;7.850;2023-05-07T06:28:15;17.40;99.90
4215;DHT22;2121;48.062;7.850;2023-05-07T06:30:41;17.20;99.90
4215;DHT22;2121;48.062;7.850;2023-05-07T06:33:07;17.20;99.90
4215;DHT22;2121;48.062;7.850;2023-05-07T06:35:33;17.20;99.90
4215;DHT22;2121;48.062;7.850;2023-05-07T06:37:59;17.10;99.90
4215;DHT22;2121;48.062;7.850;2023-05-07T06:40:26;17.00;99.90
4215;DHT22;2121;48.062;7.850;2023-05-07T06:42:52;16.80;99.90
4215;DHT22;2121;48.062;7.850;2023-05-07T06:45:18;16.80;99.90
4215;DHT22;2121;48.062;7.850;2023-05-07T06:47:44;16.80;99.90
4215;DHT22;2121;48.062;7.850;2023-05-07T06:50:10;16.80;99.90
4215;DHT22;2121;48.062;7.850;2023-05-07T06:52:36;16.90;99.90
4215;DHT22;2121;48.062;7.850;2023-05-07T06:55:02;17.40;99.90
4215;DHT22;2121;48.062;7.850;2023-05-07T06:57:28;17.50;99.90
4215;DHT22;2121;48.062;7.850;2023-05-07T06:59:53;17.80;99.90
4215;DHT22;2121;48.062;7.850;2023-05-07T07:02:19;18.00;99.90
4215;DHT22;2121;48.062;7.850;2023-05-07T07:04:45;18.00;99.90
4215;DHT22;2121;48.062;7.850;2023-05-07T07:07:11;18.00;99.90
4215;DHT22;2121;48.062;7.850;2023-05-07T07:09:36;18.10;99.90
4215;DHT22;2121;48.062;7.850;2023-05-07T07:12:02;18.10;99.90
4215;DHT22;2121;48.062;7.850;2023-05-07T07:14:28;18.10;99.90
4215;DHT22;2121;48.062;7.850;2023-05-07T07:16:54;18.20;99.90
4215;DHT22;2121;48.062;7.850;2023-05-07T07:19:20;18.30;99.90
4215;DHT22;2121;48.062;7.850;2023-05-07T07:21:46;18.40;99.90
4215;DHT22;2121;48.062;7.850;2023-05-07T07:24:12;18.60;99.90
4215;DHT22;2121;48.062;7.850;2023-05-07T07:26:38;18.60;99.90
4215;DHT22;2121;48.062;7.850;2023-05-07T07:29:05;18.80;99.90
4215;DHT22;2121;48.062;7.850;2023-05-07T07:31:32;18.70;99.90
4215;DHT22;2121;48.062;7.850;2023-05-07T07:33:58;18.70;99.90
4215;DHT22;2121;48.062;7.850;2023-05-07T07:36:23;18.80;99.90
4215;DHT22;2121;48.062;7.850;2023-05-07T07:38:49;18.90;99.90
4215;DHT22;2121;48.062;7.850;2023-05-07T07:41:15;18.90;99.90
4215;DHT22;2121;48.062;7.850;2023-05-07T07:43:40;18.90;99.90
4215;DHT22;2121;48.062;7.850;2023-05-07T07:46:06;19.00;99.90
4215;DHT22;2121;48.062;7.850;2023-05-07T07:48:32;18.90;99.90
4215;DHT22;2121;48.062;7.850;2023-05-07T07:50:57;18.90;99.90
4215;DHT22;2121;48.062;7.850;2023-05-07T07:53:23;18.80;99.90
4215;DHT22;2121;48.062;7.850;2023-05-07T07:55:49;19.00;99.90
4215;DHT22;2121;48.062;7.850;2023-05-07T07:58:14;19.30;99.90
4215;DHT22;2121;48.062;7.850;2023-05-07T08:00:40;19.40;99.90
4215;DHT22;2121;48.062;7.850;2023-05-07T08:03:09;19.50;99.90
4215;DHT22;2121;48.062;7.850;2023-05-07T08:05:35;19.70;99.90
4215;DHT22;2121;48.062;7.850;2023-05-07T08:08:01;19.80;99.90
4215;DHT22;2121;48.062;7.850;2023-05-07T08:10:27;19.90;99.90
4215;DHT22;2121;48.062;7.850;2023-05-07T08:12:53;20.20;99.90
4215;DHT22;2121;48.062;7.850;2023-05-07T08:15:19;20.50;99.90
4215;DHT22;2121;48.062;7.850;2023-05-07T08:17:45;20.60;99.90
4215;DHT22;2121;48.062;7.850;2023-05-07T08:20:10;20.40;99.90
4215;DHT22;2121;48.062;7.850;2023-05-07T08:22:36;20.60;99.90
4215;DHT22;2121;48.062;7.850;2023-05-07T08:25:03;20.40;99.90
4215;DHT22;2121;48.062;7.850;2023-05-07T08:27:29;20.10;99.90
4215;DHT22;2121;48.062;7.850;2023-05-07T08:29:54;20.20;99.90
4215;DHT22;2121;48.062;7.850;2023-05-07T08:32:21;20.10;99.90
4215;DHT22;2121;48.062;7.850;2023-05-07T08:34:47;20.40;99.90
4215;DHT22;2121;48.062;7.850;2023-05-07T08:37:13;20.60;99.90
4215;DHT22;2121;48.062;7.850;2023-05-07T08:39:39;20.90;99.90
4215;DHT22;2121;48.062;7.850;2023-05-07T08:42:04;21.10;99.90
4215;DHT22;2121;48.062;7.850;2023-05-07T08:44:34;21.30;99.90
4215;DHT22;2121;48.062;7.850;2023-05-07T08:47:06;21.10;99.90
4215;DHT22;2121;48.062;7.850;2023-05-07T08:49:34;21.10;99.90
4215;DHT22;2121;48.062;7.850;2023-05-07T08:52:00;21.20;99.90
4215;DHT22;2121;48.062;7.850;2023-05-07T08:54:27;21.40;99.90
4215;DHT22;2121;48.062;7.850;2023-05-07T08:56:54;21.60;99.90
4215;DHT22;2121;48.062;7.850;2023-05-07T08:59:20;22.10;99.90
4215;DHT22;2121;48.062;7.850;2023-05-07T09:01:46;22.10;99.90
4215;DHT22;2121;48.062;7.850;2023-05-07T09:04:12;21.90;99.90
4215;DHT22;2121;48.062;7.850;2023-05-07T09:06:38;21.70;99.90
4215;DHT22;2121;48.062;7.850;2023-05-07T09:09:07;21.60;99.90
4215;DHT22;2121;48.062;7.850;2023-05-07T09:11:33;21.70;99.90
4215;DHT22;2121;48.062;7.850;2023-05-07T09:13:58;21.40;99.90
4215;DHT22;2121;48.062;7.850;2023-05-07T09:16:29;21.50;99.90
4215;DHT22;2121;48.062;7.850;2023-05-07T09:18:58;21.60;99.90
4215;DHT22;2121;48.062;7.850;2023-05-07T09:21:25;21.40;99.90
4215;DHT22;2121;48.062;7.850;2023-05-07T09:23:53;21.90;99.90
4215;DHT22;2121;48.062;7.850;2023-05-07T09:26:23;22.30;99.90
4215;DHT22;2121;48.062;7.850;2023-05-07T09:28:50;22.70;99.90
4215;DHT22;2121;48.062;7.850;2023-05-07T09:31:16;22.90;99.90
4215;DHT22;2121;48.062;7.850;2023-05-07T09:33:41;23.20;99.90
4215;DHT22;2121;48.062;7.850;2023-05-07T09:36:08;23.80;99.90
4215;DHT22;2121;48.062;7.850;2023-05-07T09:38:36;23.90;99.90
4215;DHT22;2121;48.062;7.850;2023-05-07T09:43:37;22.90;99.90
4215;DHT22;2121;48.062;7.850;2023-05-07T09:46:07;22.60;99.90
4215;DHT22;2121;48.062;7.850;2023-05-07T09:48:39;22.40;99.90
4215;DHT22;2121;48.062;7.850;2023-05-07T09:51:22;22.80;99.90
4215;DHT22;2121;48.062;7.850;2023-05-07T09:53:54;23.00;99.90
4215;DHT22;2121;48.062;7.850;2023-05-07T09:56:22;23.00;99.90
4215;DHT22;2121;48.062;7.850;2023-05-07T09:58:48;22.80;99.90
4215;DHT22;2121;48.062;7.850;2023-05-07T10:01:17;22.60;99.90
4215;DHT22;2121;48.062;7.850;2023-05-07T10:03:44;22.80;99.90
4215;DHT22;2121;48.062;7.850;2023-05-07T10:06:12;23.10;99.90
4215;DHT22;2121;48.062;7.850;2023-05-07T10:08:39;23.20;99.90
4215;DHT22;2121;48.062;7.850;2023-05-07T10:11:05;22.60;99.90
4215;DHT22;2121;48.062;7.850;2023-05-07T10:13:33;22.10;99.90
4215;DHT22;2121;48.062;7.850;2023-05-07T10:16:06;21.80;99.90
4215;DHT22;2121;48.062;7.850;2023-05-07T10:18:32;21.60;99.90
4215;DHT22;2121;48.062;7.850;2023-05-07T10:21:08;21.50;99.90
4215;DHT22;2121;48.062;7.850;2023-05-07T10:23:38;20.90;99.90
4215;DHT22;2121;48.062;7.850;2023-05-07T10:26:06;20.60;99.90
4215;DHT22;2121;48.062;7.850;2023-05-07T10:28:38;19.80;99.90
4215;DHT22;2121;48.062;7.850;2023-05-07T10:33:58;19.30;99.90
4215;DHT22;2121;48.062;7.850;2023-05-07T10:36:25;19.10;99.90
4215;DHT22;2121;48.062;7.850;2023-05-07T10:38:52;19.30;99.90
4215;DHT22;2121;48.062;7.850;2023-05-07T10:41:18;19.30;99.90
4215;DHT22;2121;48.062;7.850;2023-05-07T10:43:45;19.20;99.90
4215;DHT22;2121;48.062;7.850;2023-05-07T10:46:14;19.10;99.90
4215;DHT22;2121;48.062;7.850;2023-05-07T10:51:34;18.60;99.90
4215;DHT22;2121;48.062;7.850;2023-05-07T10:56:39;17.50;99.90
4215;DHT22;2121;48.062;7.850;2023-05-07T11:04:18;16.70;99.90
4215;DHT22;2121;48.062;7.850;2023-05-07T11:07:25;16.80;99.90
4215;DHT22;2121;48.062;7.850;2023-05-07T11:15:13;17.10;99.90
4215;DHT22;2121;48.062;7.850;2023-05-07T11:17:58;17.40;99.90
4215;DHT22;2121;48.062;7.850;2023-05-07T11:20:57;17.80;99.90
4215;DHT22;2121;48.062;7.850;2023-05-07T11:26:10;18.40;99.90
4215;DHT22;2121;48.062;7.850;2023-05-07T11:28:41;18.30;99.90
4215;DHT22;2121;48.062;7.850;2023-05-07T11:31:08;18.60;99.90
4215;DHT22;2121;48.062;7.850;2023-05-07T11:33:35;19.30;99.90
4215;DHT22;2121;48.062;7.850;2023-05-07T11:36:05;20.20;99.90
4215;DHT22;2121;48.062;7.850;2023-05-07T11:38:35;20.80;99.90
4215;DHT22;2121;48.062;7.850;2023-05-07T11:41:01;21.30;99.90
4215;DHT22;2121;48.062;7.850;2023-05-07T11:43:30;21.50;99.90
4215;DHT22;2121;48.062;7.850;2023-05-07T11:46:06;22.20;99.90
4215;DHT22;2121;48.062;7.850;2023-05-07T11:48:37;22.70;99.90
4215;DHT22;2121;48.062;7.850;2023-05-07T11:51:06;23.10;99.90
4215;DHT22;2121;48.062;7.850;2023-05-07T11:53:38;23.30;99.90
4215;DHT22;2121;48.062;7.850;2023-05-07T11:56:16;23.50;99.90
4215;DHT22;2121;48.062;7.850;2023-05-07T11:58:44;23.90;99.90
4215;DHT22;2121;48.062;7.850;2023-05-07T12:01:11;24.40;99.90
4215;DHT22;2121;48.062;7.850;2023-05-07T12:03:40;24.60;99.90
4215;DHT22;2121;48.062;7.850;2023-05-07T12:06:16;24.60;99.90
4215;DHT22;2121;48.062;7.850;2023-05-07T12:08:44;24.50;99.90
4215;DHT22;2121;48.062;7.850;2023-05-07T12:11:18;24.60;99.90
4215;DHT22;2121;48.062;7.850;2023-05-07T12:13:48;24.00;99.90
4215;DHT22;2121;48.062;7.850;2023-05-07T12:16:14;23.30;99.90
4215;DHT22;2121;48.062;7.850;2023-05-07T12:18:40;22.70;99.90
4215;DHT22;2121;48.062;7.850;2023-05-07T12:21:07;22.00;99.90
4215;DHT22;2121;48.062;7.850;2023-05-07T12:23:34;22.00;99.90
4215;DHT22;2121;48.062;7.850;2023-05-07T12:26:01;22.20;99.90
4215;DHT22;2121;48.062;7.850;2023-05-07T12:28:27;22.40;99.90
4215;DHT22;2121;48.062;7.850;2023-05-07T12:30:53;22.80;99.90
4215;DHT22;2121;48.062;7.850;2023-05-07T12:33:25;24.10;99.90
4215;DHT22;2121;48.062;7.850;2023-05-07T12:35:53;25.50;99.90
4215;DHT22;2121;48.062;7.850;2023-05-07T12:38:20;24.60;99.90
4215;DHT22;2121;48.062;7.850;2023-05-07T12:40:52;24.60;99.90
4215;DHT22;2121;48.062;7.850;2023-05-07T12:43:27;24.60;99.90
4215;DHT22;2121;48.062;7.850;2023-05-07T12:45:59;24.70;99.90
4215;DHT22;2121;48.062;7.850;2023-05-07T12:48:26;25.30;99.90
4215;DHT22;2121;48.062;7.850;2023-05-07T12:51:00;25.30;99.90
4215;DHT22;2121;48.062;7.850;2023-05-07T12:53:28;25.40;99.90
4215;DHT22;2121;48.062;7.850;2023-05-07T12:55:56;24.80;99.90
4215;DHT22;2121;48.062;7.850;2023-05-07T12:58:29;24.60;99.90
4215;DHT22;2121;48.062;7.850;2023-05-07T13:00:58;24.40;99.90
4215;DHT22;2121;48.062;7.850;2023-05-07T13:03:36;24.20;99.90
4215;DHT22;2121;48.062;7.850;2023-05-07T13:06:04;24.20;99.90
4215;DHT22;2121;48.062;7.850;2023-05-07T13:08:32;23.60;99.90
4215;DHT22;2121;48.062;7.850;2023-05-07T13:11:03;23.50;99.90
4215;DHT22;2121;48.062;7.850;2023-05-07T13:13:34;23.20;99.90
4215;DHT22;2121;48.062;7.850;2023-05-07T13:16:01;23.10;99.90
4215;DHT22;2121;48.062;7.850;2023-05-07T13:18:29;22.80;99.90
4215;DHT22;2121;48.062;7.850;2023-05-07T13:20:56;22.40;99.90
4215;DHT22;2121;48.062;7.850;2023-05-07T13:23:22;22.50;99.90
4215;DHT22;2121;48.062;7.850;2023-05-07T13:25:49;22.40;99.90
4215;DHT22;2121;48.062;7.850;2023-05-07T13:28:15;22.10;99.90
4215;DHT22;2121;48.062;7.850;2023-05-07T13:30:41;22.40;99.90
4215;DHT22;2121;48.062;7.850;2023-05-07T13:33:07;22.30;99.90
4215;DHT22;2121;48.062;7.850;2023-05-07T13:35:33;22.20;99.90
4215;DHT22;2121;48.062;7.850;2023-05-07T13:37:59;22.20;99.90
4215;DHT22;2121;48.062;7.850;2023-05-07T13:40:24;22.30;99.90
4215;DHT22;2121;48.062;7.850;2023-05-07T13:42:50;22.40;99.90
4215;DHT22;2121;48.062;7.850;2023-05-07T13:45:19;22.20;99.90
4215;DHT22;2121;48.062;7.850;2023-05-07T13:47:46;21.70;99.90
4215;DHT22;2121;48.062;7.850;2023-05-07T13:50:12;21.60;99.90
4215;DHT22;2121;48.062;7.850;2023-05-07T13:52:42;21.50;99.90
4215;DHT22;2121;48.062;7.850;2023-05-07T13:55:11;21.60;99.90
4215;DHT22;2121;48.062;7.850;2023-05-07T13:57:36;21.40;99.90
4215;DHT22;2121;48.062;7.850;2023-05-07T14:00:04;21.60;99.90
4215;DHT22;2121;48.062;7.850;2023-05-07T14:02:31;22.10;99.90
4215;DHT22;2121;48.062;7.850;2023-05-07T14:04:56;22.60;99.90
4215;DHT22;2121;48.062;7.850;2023-05-07T14:07:22;23.20;99.90
4215;DHT22;2121;48.062;7.850;2023-05-07T14:09:48;23.10;99.90
4215;DHT22;2121;48.062;7.850;2023-05-07T14:12:14;23.70;99.90
4215;DHT22;2121;48.062;7.850;2023-05-07T14:14:39;23.20;99.90
4215;DHT22;2121;48.062;7.850;2023-05-07T14:17:05;23.70;99.90
4215;DHT22;2121;48.062;7.850;2023-05-07T14:19:31;23.60;99.90
4215;DHT22;2121;48.062;7.850;2023-05-07T14:21:56;23.30;99.90
4215;DHT22;2121;48.062;7.850;2023-05-07T14:24:24;23.60;99.90
4215;DHT22;2121;48.062;7.850;2023-05-07T14:26:50;25.10;99.90
4215;DHT22;2121;48.062;7.850;2023-05-07T14:29:16;27.20;99.90
4215;DHT22;2121;48.062;7.850;2023-05-07T14:31:44;27.30;97.90
4215;DHT22;2121;48.062;7.850;2023-05-07T14:34:10;26.00;98.70
4215;DHT22;2121;48.062;7.850;2023-05-07T14:36:36;25.90;98.40
4215;DHT22;2121;48.062;7.850;2023-05-07T14:39:03;26.50;97.90
4215;DHT22;2121;48.062;7.850;2023-05-07T14:41:29;25.00;98.90
4215;DHT22;2121;48.062;7.850;2023-05-07T14:43:55;24.50;99.90
4215;DHT22;2121;48.062;7.850;2023-05-07T14:46:22;25.40;99.50
4215;DHT22;2121;48.062;7.850;2023-05-07T14:48:49;25.20;98.90
4215;DHT22;2121;48.062;7.850;2023-05-07T14:51:14;26.00;99.70
4215;DHT22;2121;48.062;7.850;2023-05-07T14:53:41;26.70;98.10
4215;DHT22;2121;48.062;7.850;2023-05-07T14:56:07;26.50;98.00
4215;DHT22;2121;48.062;7.850;2023-05-07T14:58:34;26.80;97.80
4215;DHT22;2121;48.062;7.850;2023-05-07T15:01:00;26.30;97.80
4215;DHT22;2121;48.062;7.850;2023-05-07T15:03:27;25.30;97.90
4215;DHT22;2121;48.062;7.850;2023-05-07T15:05:53;24.30;99.40
4215;DHT22;2121;48.062;7.850;2023-05-07T15:08:19;24.10;99.50
4215;DHT22;2121;48.062;7.850;2023-05-07T15:10:45;25.10;99.00
4215;DHT22;2121;48.062;7.850;2023-05-07T15:13:12;25.20;99.50
4215;DHT22;2121;48.062;7.850;2023-05-07T15:15:42;25.30;99.20
4215;DHT22;2121;48.062;7.850;2023-05-07T15:18:09;25.20;99.70
4215;DHT22;2121;48.062;7.850;2023-05-07T15:20:36;25.80;98.80
4215;DHT22;2121;48.062;7.850;2023-05-07T15:23:02;25.90;99.00
4215;DHT22;2121;48.062;7.850;2023-05-07T15:25:30;25.60;99.00
4215;DHT22;2121;48.062;7.850;2023-05-07T15:27:58;25.50;98.40
4215;DHT22;2121;48.062;7.850;2023-05-07T15:30:23;25.30;98.80
4215;DHT22;2121;48.062;7.850;2023-05-07T15:32:50;25.20;99.00
4215;DHT22;2121;48.062;7.850;2023-05-07T15:35:16;25.10;99.10
4215;DHT22;2121;48.062;7.850;2023-05-07T15:37:42;26.00;98.20
4215;DHT22;2121;48.062;7.850;2023-05-07T15:40:09;27.00;97.30
4215;DHT22;2121;48.062;7.850;2023-05-07T15:42:35;28.50;96.20
4215;DHT22;2121;48.062;7.850;2023-05-07T15:45:01;31.10;94.40
4215;DHT22;2121;48.062;7.850;2023-05-07T15:47:27;32.60;92.00
4215;DHT22;2121;48.062;7.850;2023-05-07T15:49:53;31.20;91.40
4215;DHT22;2121;48.062;7.850;2023-05-07T15:52:18;30.60;92.10
4215;DHT22;2121;48.062;7.850;2023-05-07T15:54:45;30.20;91.60
4215;DHT22;2121;48.062;7.850;2023-05-07T15:57:11;28.80;92.70
4215;DHT22;2121;48.062;7.850;2023-05-07T15:59:37;28.90;92.40
4215;DHT22;2121;48.062;7.850;2023-05-07T16:02:03;28.90;92.40
4215;DHT22;2121;48.062;7.850;2023-05-07T16:04:29;29.30;92.00
4215;DHT22;2121;48.062;7.850;2023-05-07T16:06:55;28.20;92.30
4215;DHT22;2121;48.062;7.850;2023-05-07T16:09:21;26.30;94.50
4215;DHT22;2121;48.062;7.850;2023-05-07T16:11:47;24.40;95.80
4215;DHT22;2121;48.062;7.850;2023-05-07T16:14:13;23.40;97.30
4215;DHT22;2121;48.062;7.850;2023-05-07T16:16:39;22.30;98.00
4215;DHT22;2121;48.062;7.850;2023-05-07T16:19:05;22.20;98.50
4215;DHT22;2121;48.062;7.850;2023-05-07T16:21:32;22.40;98.30
4215;DHT22;2121;48.062;7.850;2023-05-07T16:23:57;22.40;98.20